createdAt,value
2022-12-15T00:00:39.166Z,-7.37
2022-12-15T00:01:39.406Z,-7.36
2022-12-15T00:02:39.762Z,-7.34
2022-12-15T00:03:40.093Z,-7.34
2022-12-15T00:04:40.256Z,-7.33
2022-12-15T00:05:40.533Z,-7.30
2022-12-15T00:06:40.802Z,-7.31
2022-12-15T00:07:41.015Z,-7.31
2022-12-15T00:08:41.264Z,-7.33
2022-12-15T00:09:41.512Z,-7.33
2022-12-15T00:10:41.771Z,-7.33
2022-12-15T00:11:42.001Z,-7.33
2022-12-15T00:12:42.250Z,-7.34
2022-12-15T00:13:42.465Z,-7.31
2022-12-15T00:14:42.824Z,-7.30
2022-12-15T00:15:43.082Z,-7.29
2022-12-15T00:16:43.314Z,-7.26
2022-12-15T00:17:43.543Z,-7.26
2022-12-15T00:18:43.784Z,-7.23
2022-12-15T00:19:44.022Z,-7.25
2022-12-15T00:20:44.266Z,-7.26
2022-12-15T00:21:44.505Z,-7.30
2022-12-15T00:22:44.752Z,-7.31
2022-12-15T00:23:44.983Z,-7.36
2022-12-15T00:24:45.226Z,-7.37
2022-12-15T00:25:45.542Z,-7.39
2022-12-15T00:26:45.775Z,-7.39
2022-12-15T00:27:46.012Z,-7.39
2022-12-15T00:28:46.253Z,-7.39
2022-12-15T00:29:46.496Z,-7.41
2022-12-15T00:30:50.069Z,-7.39
2022-12-15T00:31:47.073Z,-7.39
2022-12-15T00:32:47.331Z,-7.43
2022-12-15T00:33:47.565Z,-7.48
2022-12-15T00:34:47.816Z,-7.50
2022-12-15T00:35:48.102Z,-7.50
2022-12-15T00:36:49.728Z,-7.51
2022-12-15T00:37:48.648Z,-7.54
2022-12-15T00:38:48.876Z,-7.55
2022-12-15T00:39:49.145Z,-7.54
2022-12-15T00:40:49.401Z,-7.50
2022-12-15T00:41:49.627Z,-7.46
2022-12-15T00:42:49.920Z,-7.50
2022-12-15T00:43:50.134Z,-7.52
2022-12-15T00:44:50.384Z,-7.58
2022-12-15T00:45:50.627Z,-7.62
2022-12-15T00:46:50.910Z,-7.61
2022-12-15T00:47:51.142Z,-7.62
2022-12-15T00:48:51.384Z,-7.68
2022-12-15T00:49:51.613Z,-7.71
2022-12-15T00:50:51.984Z,-7.72
2022-12-15T00:51:52.223Z,-7.78
2022-12-15T00:52:52.466Z,-7.80
2022-12-15T00:53:52.695Z,-7.83
2022-12-15T00:54:52.945Z,-7.87
2022-12-15T00:55:53.217Z,-7.83
2022-12-15T00:56:53.444Z,-7.82
2022-12-15T00:57:53.686Z,-7.76
2022-12-15T00:58:53.938Z,-7.80
2022-12-15T00:59:54.172Z,-7.79
2022-12-15T01:00:54.447Z,-7.87
2022-12-15T01:01:54.724Z,-7.90
2022-12-15T01:02:55.258Z,-7.94
2022-12-15T01:03:55.368Z,-7.93
2022-12-15T01:04:55.624Z,-7.91
2022-12-15T01:05:55.864Z,-7.87
2022-12-15T01:06:56.113Z,-7.83
2022-12-15T01:07:56.341Z,-7.79
2022-12-15T01:08:56.703Z,-7.78
2022-12-15T01:09:56.945Z,-7.75
2022-12-15T01:10:57.204Z,-7.78
2022-12-15T01:11:57.428Z,-7.80
2022-12-15T01:12:57.774Z,-7.86
2022-12-15T01:13:58.015Z,-7.87
2022-12-15T01:14:58.263Z,-7.89
2022-12-15T01:15:58.543Z,-7.87
2022-12-15T01:16:58.790Z,-7.89
2022-12-15T01:17:59.014Z,-7.90
2022-12-15T01:18:59.258Z,-7.89
2022-12-15T01:19:59.502Z,-7.89
2022-12-15T01:20:59.751Z,-7.91
2022-12-15T01:21:59.985Z,-7.91
2022-12-15T01:23:00.224Z,-7.94
2022-12-15T01:24:00.488Z,-7.94
2022-12-15T01:25:00.714Z,-7.96
2022-12-15T01:26:00.974Z,-7.89
2022-12-15T01:27:01.213Z,-7.86
2022-12-15T01:28:01.451Z,-7.87
2022-12-15T01:29:01.699Z,-7.93
2022-12-15T01:30:01.942Z,-7.91
2022-12-15T01:31:02.241Z,-7.97
2022-12-15T01:32:02.506Z,-7.99
2022-12-15T01:33:02.741Z,-7.99
2022-12-15T01:34:02.980Z,-8.01
2022-12-15T01:35:03.213Z,-8.08
2022-12-15T01:36:03.477Z,-8.13
2022-12-15T01:37:03.706Z,-8.16
2022-12-15T01:38:03.943Z,-8.18
2022-12-15T01:39:04.198Z,-8.23
2022-12-15T01:40:04.428Z,-8.27
2022-12-15T01:41:04.685Z,-8.29
2022-12-15T01:42:04.939Z,-8.29
2022-12-15T01:43:05.200Z,-8.27
2022-12-15T01:44:05.423Z,-8.26
2022-12-15T01:45:05.678Z,-8.30
2022-12-15T01:46:05.938Z,-8.36
2022-12-15T01:47:06.199Z,-8.36
2022-12-15T01:48:06.433Z,-8.40
2022-12-15T01:49:06.682Z,-8.42
2022-12-15T01:50:06.904Z,-8.39
2022-12-15T01:51:07.166Z,-8.36
2022-12-15T01:52:07.401Z,-8.36
2022-12-15T01:53:07.667Z,-8.36
2022-12-15T01:54:07.912Z,-8.34
2022-12-15T01:55:08.164Z,-8.34
2022-12-15T01:56:08.415Z,-8.33
2022-12-15T01:57:08.663Z,-8.31
2022-12-15T01:58:08.924Z,-8.27
2022-12-15T01:59:09.141Z,-8.24
2022-12-15T02:00:09.386Z,-8.24
2022-12-15T02:01:09.730Z,-8.26
2022-12-15T02:02:09.944Z,-8.26
2022-12-15T02:03:10.170Z,-8.24
2022-12-15T02:04:10.424Z,-8.23
2022-12-15T02:05:10.677Z,-8.23
2022-12-15T02:06:10.921Z,-8.19
2022-12-15T02:07:11.173Z,-8.16
2022-12-15T02:08:11.407Z,-8.13
2022-12-15T02:09:11.652Z,-8.11
2022-12-15T02:10:11.902Z,-8.09
2022-12-15T02:11:12.148Z,-8.09
2022-12-15T02:12:12.376Z,-8.06
2022-12-15T02:13:12.624Z,-8.01
2022-12-15T02:14:12.883Z,-8.05
2022-12-15T02:15:13.127Z,-8.06
2022-12-15T02:16:13.433Z,-8.09
2022-12-15T02:17:13.664Z,-8.09
2022-12-15T02:18:13.926Z,-8.09
2022-12-15T02:19:14.177Z,-8.06
2022-12-15T02:20:14.413Z,-8.06
2022-12-15T02:21:14.671Z,-8.09
2022-12-15T02:22:14.902Z,-8.01
2022-12-15T02:23:15.148Z,-8.02
2022-12-15T02:24:15.398Z,-8.05
2022-12-15T02:25:15.638Z,-8.05
2022-12-15T02:26:15.874Z,-8.06
2022-12-15T02:27:16.123Z,-8.06
2022-12-15T02:28:16.385Z,-8.02
2022-12-15T02:29:16.625Z,-8.01
2022-12-15T02:30:16.870Z,-8.01
2022-12-15T02:31:17.137Z,-8.05
2022-12-15T02:32:17.343Z,-8.05
2022-12-15T02:33:17.602Z,-8.08
2022-12-15T02:34:17.855Z,-8.12
2022-12-15T02:35:18.093Z,-8.12
2022-12-15T02:36:18.342Z,-8.16
2022-12-15T02:37:18.582Z,-8.19
2022-12-15T02:38:18.812Z,-8.23
2022-12-15T02:39:19.173Z,-8.27
2022-12-15T02:40:19.459Z,-8.30
2022-12-15T02:41:19.700Z,-8.31
2022-12-15T02:42:19.943Z,-8.30
2022-12-15T02:43:20.176Z,-8.30
2022-12-15T02:44:20.415Z,-8.26
2022-12-15T02:45:20.645Z,-8.23
2022-12-15T02:46:20.949Z,-8.24
2022-12-15T02:47:21.183Z,-8.26
2022-12-15T02:48:21.423Z,-8.30
2022-12-15T02:49:21.678Z,-8.34
2022-12-15T02:50:21.913Z,-8.39
2022-12-15T02:51:22.173Z,-8.40
2022-12-15T02:52:22.394Z,-8.40
2022-12-15T02:53:22.636Z,-8.42
2022-12-15T02:54:22.896Z,-8.45
2022-12-15T02:55:23.144Z,-8.47
2022-12-15T02:56:23.382Z,-8.47
2022-12-15T02:57:23.633Z,-8.44
2022-12-15T02:58:23.883Z,-8.42
2022-12-15T02:59:24.127Z,-8.42
2022-12-15T03:00:24.431Z,-8.37
2022-12-15T03:01:24.805Z,-8.36
2022-12-15T03:02:25.105Z,-8.33
2022-12-15T03:03:25.260Z,-8.34
2022-12-15T03:04:25.500Z,-8.36
2022-12-15T03:05:25.725Z,-8.33
2022-12-15T03:06:25.980Z,-8.31
2022-12-15T03:07:26.203Z,-8.31
2022-12-15T03:08:26.444Z,-8.33
2022-12-15T03:09:26.685Z,-8.33
2022-12-15T03:10:26.926Z,-8.34
2022-12-15T03:11:27.184Z,-8.36
2022-12-15T03:12:27.424Z,-8.36
2022-12-15T03:13:27.892Z,-8.34
2022-12-15T03:14:27.933Z,-8.31
2022-12-15T03:15:33.549Z,-8.24
2022-12-15T03:16:29.479Z,-8.24
2022-12-15T03:17:28.689Z,-8.21
2022-12-15T03:18:28.912Z,-8.15
2022-12-15T03:19:29.142Z,-8.16
2022-12-15T03:20:29.394Z,-8.21
2022-12-15T03:21:29.643Z,-8.26
2022-12-15T03:22:29.882Z,-8.29
2022-12-15T03:23:30.508Z,-8.33
2022-12-15T03:24:30.446Z,-8.33
2022-12-15T03:25:30.683Z,-8.34
2022-12-15T03:26:30.955Z,-8.34
2022-12-15T03:27:31.183Z,-8.39
2022-12-15T03:28:31.435Z,-8.42
2022-12-15T03:29:31.662Z,-8.48
2022-12-15T03:30:31.910Z,-8.47
2022-12-15T03:31:32.319Z,-8.50
2022-12-15T03:32:32.392Z,-8.54
2022-12-15T03:33:33.084Z,-8.58
2022-12-15T03:34:32.950Z,-8.63
2022-12-15T03:35:33.184Z,-8.63
2022-12-15T03:36:33.447Z,-8.70
2022-12-15T03:37:33.676Z,-8.72
2022-12-15T03:38:33.927Z,-8.70
2022-12-15T03:39:34.160Z,-8.70
2022-12-15T03:40:34.393Z,-8.70
2022-12-15T03:41:34.651Z,-8.68
2022-12-15T03:42:34.910Z,-8.68
2022-12-15T03:43:35.153Z,-8.63
2022-12-15T03:44:35.381Z,-8.54
2022-12-15T03:45:35.740Z,-8.54
2022-12-15T03:46:35.865Z,-8.52
2022-12-15T03:47:36.103Z,-8.54
2022-12-15T03:48:44.103Z,-8.55
2022-12-15T03:49:36.746Z,-8.60
2022-12-15T03:50:37.110Z,-8.62
2022-12-15T03:51:37.219Z,-8.58
2022-12-15T03:52:37.475Z,-8.54
2022-12-15T03:53:37.762Z,-8.51
2022-12-15T03:54:38.061Z,-8.55
2022-12-15T03:55:38.323Z,-8.54
2022-12-15T03:56:38.621Z,-8.55
2022-12-15T03:57:38.884Z,-8.54
2022-12-15T03:58:39.162Z,-8.55
2022-12-15T03:59:39.434Z,-8.58
2022-12-15T04:00:39.735Z,-8.57
2022-12-15T04:01:40.146Z,-8.57
2022-12-15T04:02:40.436Z,-8.55
2022-12-15T04:03:40.668Z,-8.55
2022-12-15T04:04:40.953Z,-8.55
2022-12-15T04:05:41.247Z,-8.54
2022-12-15T04:06:41.545Z,-8.55
2022-12-15T04:07:41.829Z,-8.58
2022-12-15T04:08:42.108Z,-8.58
2022-12-15T04:09:42.376Z,-8.57
2022-12-15T04:10:42.653Z,-8.57
2022-12-15T04:11:42.945Z,-8.55
2022-12-15T04:12:43.236Z,-8.48
2022-12-15T04:13:43.524Z,-8.42
2022-12-15T04:14:43.804Z,-8.44
2022-12-15T04:15:44.083Z,-8.40
2022-12-15T04:16:44.428Z,-8.37
2022-12-15T04:17:44.714Z,-8.39
2022-12-15T04:18:44.982Z,-8.42
2022-12-15T04:19:45.276Z,-8.48
2022-12-15T04:20:45.574Z,-8.48
2022-12-15T04:21:45.834Z,-8.50
2022-12-15T04:22:46.104Z,-8.50
2022-12-15T04:23:46.416Z,-8.51
2022-12-15T04:24:46.736Z,-8.48
2022-12-15T04:25:47.046Z,-8.40
2022-12-15T04:26:47.319Z,-8.34
2022-12-15T04:27:47.554Z,-8.30
2022-12-15T04:28:47.806Z,-8.29
2022-12-15T04:29:48.072Z,-8.30
2022-12-15T04:30:48.375Z,-8.31
2022-12-15T04:31:48.676Z,-8.27
2022-12-15T04:32:49.977Z,-8.24
2022-12-15T04:33:49.166Z,-8.23
2022-12-15T04:34:49.446Z,-8.21
2022-12-15T04:35:49.954Z,-8.18
2022-12-15T04:36:50.052Z,-8.15
2022-12-15T04:37:50.381Z,-8.13
2022-12-15T04:38:50.894Z,-8.16
2022-12-15T04:39:50.875Z,-8.18
2022-12-15T04:40:51.163Z,-8.18
2022-12-15T04:41:51.468Z,-8.18
2022-12-15T04:42:51.790Z,-8.19
2022-12-15T04:43:52.115Z,-8.19
2022-12-15T04:44:52.279Z,-8.21
2022-12-15T04:45:53.151Z,-8.21
2022-12-15T04:46:53.024Z,-8.15
2022-12-15T04:47:53.118Z,-8.12
2022-12-15T04:48:53.430Z,-8.11
2022-12-15T04:49:53.771Z,-8.02
2022-12-15T04:50:54.024Z,-8.01
2022-12-15T04:51:54.294Z,-7.99
2022-12-15T04:52:54.613Z,-8.02
2022-12-15T04:53:54.922Z,-8.01
2022-12-15T04:54:55.241Z,-8.02
2022-12-15T04:55:55.654Z,-8.06
2022-12-15T04:56:55.822Z,-8.08
2022-12-15T04:57:56.093Z,-8.11
2022-12-15T04:58:56.353Z,-8.11
2022-12-15T04:59:56.643Z,-8.12
2022-12-15T05:00:56.925Z,-8.11
2022-12-15T05:01:57.448Z,-8.12
2022-12-15T05:02:57.504Z,-8.13
2022-12-15T05:03:57.801Z,-8.11
2022-12-15T05:04:58.142Z,-8.09
2022-12-15T05:05:58.506Z,-8.12
2022-12-15T05:06:58.693Z,-8.11
2022-12-15T05:07:59.012Z,-8.09
2022-12-15T05:08:59.321Z,-8.08
2022-12-15T05:10:02.953Z,-8.01
2022-12-15T05:10:59.997Z,-7.99
2022-12-15T05:12:00.272Z,-7.97
2022-12-15T05:13:00.549Z,-7.99
2022-12-15T05:14:00.853Z,-7.97
2022-12-15T05:15:01.169Z,-7.96
2022-12-15T05:16:01.581Z,-7.94
2022-12-15T05:17:01.821Z,-7.93
2022-12-15T05:18:01.963Z,-7.93
2022-12-15T05:19:02.252Z,-7.93
2022-12-15T05:20:02.563Z,-7.93
2022-12-15T05:21:02.854Z,-7.93
2022-12-15T05:22:03.163Z,-7.91
2022-12-15T05:23:03.427Z,-7.94
2022-12-15T05:24:03.723Z,-7.94
2022-12-15T05:25:04.002Z,-7.99
2022-12-15T05:26:04.276Z,-8.02
2022-12-15T05:27:04.622Z,-8.02
2022-12-15T05:28:04.783Z,-8.02
2022-12-15T05:29:05.084Z,-8.02
2022-12-15T05:30:05.366Z,-8.05
2022-12-15T05:31:05.783Z,-8.06
2022-12-15T05:32:05.972Z,-8.08
2022-12-15T05:33:06.246Z,-8.08
2022-12-15T05:34:06.535Z,-8.06
2022-12-15T05:35:06.821Z,-8.09
2022-12-15T05:36:07.096Z,-8.06
2022-12-15T05:37:07.431Z,-8.05
2022-12-15T05:38:07.732Z,-8.02
2022-12-15T05:39:08.016Z,-7.96
2022-12-15T05:40:08.303Z,-7.97
2022-12-15T05:41:08.561Z,-7.99
2022-12-15T05:42:08.873Z,-7.93
2022-12-15T05:43:09.153Z,-7.90
2022-12-15T05:44:09.444Z,-7.83
2022-12-15T05:45:09.723Z,-7.79
2022-12-15T05:46:10.074Z,-7.76
2022-12-15T05:47:10.232Z,-7.73
2022-12-15T05:48:10.504Z,-7.69
2022-12-15T05:49:10.783Z,-7.64
2022-12-15T05:50:11.065Z,-7.61
2022-12-15T05:51:11.343Z,-7.62
2022-12-15T05:52:11.622Z,-7.60
2022-12-15T05:53:11.902Z,-7.58
2022-12-15T05:54:12.173Z,-7.55
2022-12-15T05:55:12.475Z,-7.55
2022-12-15T05:56:12.723Z,-7.57
2022-12-15T05:57:13.031Z,-7.57
2022-12-15T05:58:13.301Z,-7.55
2022-12-15T05:59:13.571Z,-7.52
2022-12-15T06:00:13.822Z,-7.51
2022-12-15T06:01:14.102Z,-7.50
2022-12-15T06:02:14.461Z,-7.48
2022-12-15T06:03:14.677Z,-7.41
2022-12-15T06:04:15.004Z,-7.41
2022-12-15T06:05:15.291Z,-7.43
2022-12-15T06:06:15.596Z,-7.44
2022-12-15T06:07:16.115Z,-7.43
2022-12-15T06:08:16.172Z,-7.41
2022-12-15T06:09:16.452Z,-7.39
2022-12-15T06:10:16.721Z,-7.41
2022-12-15T06:11:16.996Z,-7.40
2022-12-15T06:12:17.294Z,-7.40
2022-12-15T06:13:17.572Z,-7.40
2022-12-15T06:14:17.864Z,-7.40
2022-12-15T06:15:18.162Z,-7.40
2022-12-15T06:16:18.528Z,-7.44
2022-12-15T06:17:18.713Z,-7.46
2022-12-15T06:18:18.999Z,-7.46
2022-12-15T06:19:19.275Z,-7.51
2022-12-15T06:20:19.590Z,-7.54
2022-12-15T06:21:19.926Z,-7.54
2022-12-15T06:22:20.173Z,-7.55
2022-12-15T06:23:20.682Z,-7.55
2022-12-15T06:24:20.728Z,-7.52
2022-12-15T06:25:20.865Z,-7.51
2022-12-15T06:26:21.546Z,-7.44
2022-12-15T06:27:21.483Z,-7.40
2022-12-15T06:28:21.762Z,-7.33
2022-12-15T06:29:22.069Z,-7.30
2022-12-15T06:30:22.391Z,-7.26
2022-12-15T06:31:22.827Z,-7.25
2022-12-15T06:32:22.903Z,-7.23
2022-12-15T06:33:23.211Z,-7.22
2022-12-15T06:34:23.491Z,-7.22
2022-12-15T06:35:23.952Z,-7.21
2022-12-15T06:36:23.996Z,-7.22
2022-12-15T06:45:50.988Z,-7.02
2022-12-15T06:47:12.850Z,-7.00
2022-12-15T06:47:49.609Z,-6.94
2022-12-15T06:48:49.533Z,-6.92
2022-12-15T06:49:50.094Z,-6.91
2022-12-15T06:50:53.205Z,-6.91
2022-12-15T06:51:52.068Z,-6.87
2022-12-15T06:52:51.663Z,-6.86
2022-12-15T06:53:51.789Z,-6.89
2022-12-15T06:54:51.591Z,-6.89
2022-12-15T06:55:51.775Z,-6.92
2022-12-15T06:56:51.626Z,-6.89
2022-12-15T06:57:51.953Z,-6.87
2022-12-15T06:58:52.283Z,-6.87
2022-12-15T06:59:52.606Z,-6.87
2022-12-15T07:00:52.883Z,-6.86
2022-12-15T07:01:53.420Z,-6.82
2022-12-15T07:02:53.706Z,-6.79
2022-12-15T07:03:54.031Z,-6.79
2022-12-15T07:04:54.235Z,-6.77
2022-12-15T07:05:54.494Z,-6.77
2022-12-15T07:06:54.872Z,-6.82
2022-12-15T07:07:55.500Z,-6.83
2022-12-15T07:08:55.543Z,-6.82
2022-12-15T07:09:56.553Z,-6.80
2022-12-15T07:10:56.436Z,-6.76
2022-12-15T07:11:56.325Z,-6.74
2022-12-15T07:12:56.607Z,-6.74
2022-12-15T07:13:56.754Z,-6.73
2022-12-15T07:14:57.735Z,-6.71
2022-12-15T07:15:57.814Z,-6.68
2022-12-15T07:16:58.057Z,-6.65
2022-12-15T07:17:57.955Z,-6.61
2022-12-15T07:18:58.941Z,-6.59
2022-12-15T07:19:58.567Z,-6.58
2022-12-15T07:20:58.883Z,-6.59
2022-12-15T07:22:00.729Z,-6.63
2022-12-15T07:22:59.517Z,-6.71
2022-12-15T07:24:01.216Z,-6.74
2022-12-15T07:25:00.181Z,-6.77
2022-12-15T07:26:00.463Z,-6.82
2022-12-15T07:27:00.754Z,-6.82
2022-12-15T07:28:01.075Z,-6.86
2022-12-15T07:29:01.394Z,-6.86
2022-12-15T07:30:01.814Z,-6.86
2022-12-15T07:31:01.969Z,-6.87
2022-12-15T07:32:02.355Z,-6.86
2022-12-15T07:33:02.489Z,-6.83
2022-12-15T07:34:02.832Z,-6.84
2022-12-15T07:35:02.984Z,-6.83
2022-12-15T07:36:03.263Z,-6.83
2022-12-15T07:37:03.535Z,-6.79
2022-12-15T07:38:03.824Z,-6.79
2022-12-15T07:39:04.112Z,-6.76
2022-12-15T07:40:04.380Z,-6.71
2022-12-15T07:41:04.654Z,-6.68
2022-12-15T07:42:04.963Z,-6.65
2022-12-15T07:43:05.257Z,-6.66
2022-12-15T07:44:06.322Z,-6.66
2022-12-15T07:45:05.773Z,-6.69
2022-12-15T07:46:06.175Z,-6.71
2022-12-15T07:47:06.328Z,-6.73
2022-12-15T07:48:06.663Z,-6.71
2022-12-15T07:49:06.949Z,-6.71
2022-12-15T07:50:07.235Z,-6.73
2022-12-15T07:51:12.405Z,-6.74
2022-12-15T07:52:08.751Z,-6.76
2022-12-15T07:53:08.103Z,-6.77
2022-12-15T07:54:08.373Z,-6.82
2022-12-15T07:55:08.654Z,-6.83
2022-12-15T07:56:10.401Z,-6.83
2022-12-15T07:57:09.294Z,-6.80
2022-12-15T07:58:09.583Z,-6.76
2022-12-15T07:59:09.865Z,-6.71
2022-12-15T08:00:10.159Z,-6.66
2022-12-15T08:01:10.568Z,-6.63
2022-12-15T08:02:10.904Z,-6.59
2022-12-15T08:03:11.147Z,-6.55
2022-12-15T08:04:11.335Z,-6.54
2022-12-15T08:05:11.615Z,-6.49
2022-12-15T08:06:12.049Z,-6.42
2022-12-15T08:07:12.204Z,-6.44
2022-12-15T08:08:15.468Z,-6.44
2022-12-15T08:09:12.754Z,-6.46
2022-12-15T08:10:13.053Z,-6.46
2022-12-15T08:11:13.380Z,-6.50
2022-12-15T08:12:13.693Z,-6.54
2022-12-15T08:13:26.163Z,-6.58
2022-12-15T08:14:17.700Z,-6.59
2022-12-15T08:15:14.567Z,-6.59
2022-12-15T08:16:14.878Z,-6.61
2022-12-15T08:17:15.158Z,-6.58
2022-12-15T08:18:15.467Z,-6.54
2022-12-15T08:19:15.754Z,-6.52
2022-12-15T08:20:16.046Z,-6.47
2022-12-15T08:21:16.345Z,-6.42
2022-12-15T08:22:16.643Z,-6.39
2022-12-15T08:23:16.945Z,-6.36
2022-12-15T08:24:17.254Z,-6.36
2022-12-15T08:25:17.545Z,-6.39
2022-12-15T08:26:17.846Z,-6.40
2022-12-15T08:27:18.135Z,-6.43
2022-12-15T08:28:18.445Z,-6.43
2022-12-15T08:30:20.004Z,-6.47
2022-12-15T08:31:19.329Z,-6.52
2022-12-15T08:32:19.606Z,-6.55
2022-12-15T08:33:19.784Z,-6.58
2022-12-15T08:34:20.075Z,-6.59
2022-12-15T08:35:54.673Z,-6.61
2022-12-15T08:36:21.616Z,-6.65
2022-12-15T08:37:20.824Z,-6.65
2022-12-15T08:38:21.116Z,-6.65
2022-12-15T08:39:21.407Z,-6.65
2022-12-15T08:40:21.689Z,-6.63
2022-12-15T08:41:21.967Z,-6.63
2022-12-15T08:42:22.236Z,-6.61
2022-12-15T08:43:22.526Z,-6.59
2022-12-15T08:44:22.819Z,-6.54
2022-12-15T08:45:23.104Z,-6.49
2022-12-15T08:46:23.487Z,-6.44
2022-12-15T08:47:23.643Z,-6.44
2022-12-15T08:48:23.945Z,-6.42
2022-12-15T08:49:24.226Z,-6.42
2022-12-15T08:50:24.595Z,-6.43
2022-12-15T08:51:24.797Z,-6.43
2022-12-15T08:52:25.104Z,-6.40
2022-12-15T08:53:32.691Z,-6.40
2022-12-15T08:54:26.646Z,-6.42
2022-12-15T08:55:25.966Z,-6.42
2022-12-15T08:56:26.265Z,-6.40
2022-12-15T08:57:26.537Z,-6.37
2022-12-15T08:58:26.880Z,-6.34
2022-12-15T08:59:27.157Z,-6.28
2022-12-15T09:00:27.450Z,-6.21
2022-12-15T09:01:27.925Z,-6.15
2022-12-15T09:02:28.109Z,-6.11
2022-12-15T09:03:28.632Z,-6.07
2022-12-15T09:04:28.731Z,-6.01
2022-12-15T09:05:28.878Z,-5.98
2022-12-15T09:06:29.171Z,-5.97
2022-12-15T09:07:29.496Z,-5.97
2022-12-15T09:08:29.797Z,-5.93
2022-12-15T09:09:30.086Z,-5.90
2022-12-15T09:10:30.387Z,-5.87
2022-12-15T09:11:30.674Z,-5.86
2022-12-15T09:12:30.967Z,-5.83
2022-12-15T09:13:31.683Z,-5.83
2022-12-15T09:14:31.561Z,-5.84
2022-12-15T09:16:07.233Z,-5.83
2022-12-15T09:16:33.174Z,-5.82
2022-12-15T09:17:32.402Z,-5.83
2022-12-15T09:18:32.702Z,-5.86
2022-12-15T09:19:32.985Z,-5.86
2022-12-15T09:20:33.306Z,-5.84
2022-12-15T09:21:34.388Z,-5.86
2022-12-15T09:22:33.914Z,-5.84
2022-12-15T09:23:35.124Z,-5.83
2022-12-15T09:24:35.533Z,-5.83
2022-12-15T09:25:34.782Z,-5.82
2022-12-15T09:26:35.078Z,-5.82
2022-12-15T09:27:35.375Z,-5.79
2022-12-15T09:28:35.699Z,-5.74
2022-12-15T09:29:35.985Z,-5.69
2022-12-15T09:30:36.306Z,-5.68
2022-12-15T09:31:36.561Z,-5.65
2022-12-15T09:32:36.848Z,-5.64
2022-12-15T09:33:37.172Z,-5.59
2022-12-15T09:34:37.466Z,-5.59
2022-12-15T09:35:37.789Z,-5.55
2022-12-15T09:36:38.077Z,-5.54
2022-12-15T09:37:38.358Z,-5.53
2022-12-15T09:38:38.676Z,-5.53
2022-12-15T09:39:38.994Z,-5.50
2022-12-15T09:40:39.269Z,-5.46
2022-12-15T09:41:39.604Z,-5.41
2022-12-15T09:42:39.918Z,-5.37
2022-12-15T09:43:46.188Z,-5.32
2022-12-15T09:44:41.502Z,-5.25
2022-12-15T09:45:40.786Z,-5.19
2022-12-15T09:46:41.029Z,-5.17
2022-12-15T09:47:41.289Z,-5.17
2022-12-15T09:48:41.608Z,-5.18
2022-12-15T09:49:41.928Z,-5.18
2022-12-15T09:50:42.217Z,-5.22
2022-12-15T09:51:42.496Z,-5.22
2022-12-15T09:52:42.797Z,-5.22
2022-12-15T09:53:54.762Z,-5.19
2022-12-15T09:54:44.511Z,-5.18
2022-12-15T09:55:43.655Z,-5.18
2022-12-15T09:56:43.990Z,-5.18
2022-12-15T09:57:45.268Z,-5.17
2022-12-15T09:58:44.607Z,-5.17
2022-12-15T09:59:44.915Z,-5.13
2022-12-15T10:00:45.894Z,-5.13
2022-12-15T10:01:46.505Z,-5.10
2022-12-15T10:02:45.823Z,-5.10
2022-12-15T10:03:46.219Z,-5.11
2022-12-15T10:04:46.303Z,-5.10
2022-12-15T10:08:48.616Z,-5.03
2022-12-15T10:09:47.819Z,-4.97
2022-12-15T10:10:48.157Z,-4.93
2022-12-15T10:11:50.297Z,-4.90
2022-12-15T10:12:59.870Z,-4.87
2022-12-15T10:13:50.276Z,-4.83
2022-12-15T10:15:50.595Z,-4.77
2022-12-15T10:16:50.204Z,-4.75
2022-12-15T10:17:50.178Z,-4.72
2022-12-15T10:18:50.357Z,-4.74
2022-12-15T10:19:50.478Z,-4.75
2022-12-15T10:20:50.807Z,-4.74
2022-12-15T10:21:51.080Z,-4.75
2022-12-15T10:22:51.378Z,-4.74
2022-12-15T10:23:51.714Z,-4.74
2022-12-15T10:25:53.207Z,-4.69
2022-12-15T10:26:52.447Z,-4.68
2022-12-15T10:27:52.728Z,-4.61
2022-12-15T10:28:52.978Z,-4.57
2022-12-15T10:29:53.284Z,-4.56
2022-12-15T10:30:53.605Z,-4.51
2022-12-15T10:31:53.872Z,-4.50
2022-12-15T10:32:54.167Z,-4.49
2022-12-15T10:33:54.478Z,-4.47
2022-12-15T10:34:54.777Z,-4.46
2022-12-15T10:35:54.996Z,-4.40
2022-12-15T10:36:55.279Z,-4.40
2022-12-15T10:37:55.587Z,-4.39
2022-12-15T10:38:55.892Z,-4.39
2022-12-15T10:39:56.169Z,-4.40
2022-12-15T10:40:56.464Z,-4.42
2022-12-15T10:41:56.764Z,-4.39
2022-12-15T10:42:57.049Z,-4.39
2022-12-15T10:43:57.370Z,-4.36
2022-12-15T10:44:57.649Z,-4.33
2022-12-15T10:45:57.988Z,-4.29
2022-12-15T10:46:58.618Z,-4.25
2022-12-15T10:47:58.592Z,-4.22
2022-12-15T10:48:58.917Z,-4.21
2022-12-15T10:49:59.216Z,-4.20
2022-12-15T10:50:59.488Z,-4.20
2022-12-15T10:51:59.819Z,-4.20
2022-12-15T10:53:00.125Z,-4.17
2022-12-15T10:54:00.462Z,-4.17
2022-12-15T10:55:00.735Z,-4.15
2022-12-15T10:56:01.025Z,-4.15
2022-12-15T10:57:01.337Z,-4.14
2022-12-15T10:58:01.627Z,-4.14
2022-12-15T10:59:01.930Z,-4.12
2022-12-15T11:00:02.237Z,-4.10
2022-12-15T11:01:02.537Z,-4.07
2022-12-15T11:02:02.975Z,-4.03
2022-12-15T11:03:03.268Z,-4.03
2022-12-15T11:04:03.595Z,-4.01
2022-12-15T11:05:03.747Z,-3.99
2022-12-15T11:06:04.038Z,-3.96
2022-12-15T11:07:04.331Z,-3.96
2022-12-15T11:08:09.115Z,-3.96
2022-12-15T11:09:05.950Z,-3.93
2022-12-15T11:10:05.178Z,-3.90
2022-12-15T11:12:12.086Z,-3.85
2022-12-15T11:13:07.077Z,-3.83
2022-12-15T11:14:06.309Z,-3.82
2022-12-15T11:15:06.607Z,-3.82
2022-12-15T11:16:06.898Z,-3.82
2022-12-15T11:17:07.211Z,-3.81
2022-12-15T11:18:07.501Z,-3.81
2022-12-15T11:19:07.830Z,-3.79
2022-12-15T11:20:08.118Z,-3.78
2022-12-15T11:21:08.408Z,-3.76
2022-12-15T11:22:08.689Z,-3.75
2022-12-15T11:23:08.982Z,-3.71
2022-12-15T11:24:09.298Z,-3.71
2022-12-15T11:25:09.572Z,-3.71
2022-12-15T11:26:09.879Z,-3.69
2022-12-15T11:27:10.176Z,-3.71
2022-12-15T11:28:10.461Z,-3.66
2022-12-15T11:29:10.780Z,-3.64
2022-12-15T11:30:11.099Z,-3.62
2022-12-15T11:31:11.428Z,-3.59
2022-12-15T11:32:11.720Z,-3.56
2022-12-15T11:33:12.001Z,-3.49
2022-12-15T11:34:12.318Z,-3.46
2022-12-15T11:35:12.602Z,-3.42
2022-12-15T11:36:12.882Z,-3.38
2022-12-15T11:37:13.186Z,-3.35
2022-12-15T11:38:13.472Z,-3.33
2022-12-15T11:39:13.837Z,-3.30
2022-12-15T11:40:14.020Z,-3.27
2022-12-15T11:41:14.310Z,-3.24
2022-12-15T11:42:14.592Z,-3.21
2022-12-15T11:43:14.879Z,-3.18
2022-12-15T11:44:15.206Z,-3.12
2022-12-15T11:45:15.500Z,-3.10
2022-12-15T11:46:15.811Z,-3.07
2022-12-15T11:47:16.116Z,-3.06
2022-12-15T11:48:16.398Z,-3.06
2022-12-15T11:49:16.738Z,-3.05
2022-12-15T11:50:17.023Z,-3.03
2022-12-15T11:51:17.312Z,-2.99
2022-12-15T11:52:17.609Z,-2.97
2022-12-15T11:53:17.903Z,-2.96
2022-12-15T11:54:18.223Z,-2.96
2022-12-15T11:55:18.511Z,-2.94
2022-12-15T11:56:18.803Z,-2.91
2022-12-15T11:57:19.090Z,-2.92
2022-12-15T11:58:19.392Z,-2.89
2022-12-15T11:59:19.700Z,-2.89
2022-12-15T12:00:19.984Z,-2.89
2022-12-15T12:01:20.309Z,-2.89
2022-12-15T12:02:20.641Z,-2.89
2022-12-15T12:03:20.826Z,-2.91
2022-12-15T12:04:21.119Z,-2.91
2022-12-15T12:05:21.423Z,-2.89
2022-12-15T12:06:21.751Z,-2.88
2022-12-15T12:07:22.032Z,-2.85
2022-12-15T12:08:22.306Z,-2.84
2022-12-15T12:09:22.614Z,-2.79
2022-12-15T12:10:22.902Z,-2.81
2022-12-15T12:11:23.214Z,-2.81
2022-12-15T12:12:24.152Z,-2.81
2022-12-15T12:13:23.742Z,-2.79
2022-12-15T12:14:24.052Z,-2.74
2022-12-15T12:15:24.383Z,-2.71
2022-12-15T12:16:24.674Z,-2.68
2022-12-15T12:17:24.961Z,-2.67
2022-12-15T12:18:25.261Z,-2.66
2022-12-15T12:19:25.600Z,-2.63
2022-12-15T12:20:25.917Z,-2.63
2022-12-15T12:21:26.191Z,-2.64
2022-12-15T12:22:26.472Z,-2.66
2022-12-15T12:23:26.764Z,-2.63
2022-12-15T12:24:27.063Z,-2.58
2022-12-15T12:25:27.321Z,-2.58
2022-12-15T12:26:27.638Z,-2.53
2022-12-15T12:27:27.908Z,-2.52
2022-12-15T12:28:28.423Z,-2.52
2022-12-15T12:29:28.524Z,-2.49
2022-12-15T12:30:28.807Z,-2.50
2022-12-15T12:31:29.188Z,-2.49
2022-12-15T12:32:29.384Z,-2.53
2022-12-15T12:33:29.683Z,-2.53
2022-12-15T12:34:30.004Z,-2.52
2022-12-15T12:35:33.477Z,-2.50
2022-12-15T12:36:30.543Z,-2.48
2022-12-15T12:37:30.823Z,-2.46
2022-12-15T12:38:31.442Z,-2.46
2022-12-15T12:39:31.424Z,-2.45
2022-12-15T12:40:31.738Z,-2.42
2022-12-15T12:41:32.035Z,-2.39
2022-12-15T12:42:32.324Z,-2.37
2022-12-15T12:43:33.203Z,-2.37
2022-12-15T12:44:32.943Z,-2.35
2022-12-15T12:45:33.222Z,-2.34
2022-12-15T12:46:33.504Z,-2.34
2022-12-15T12:47:33.796Z,-2.32
2022-12-15T12:48:34.071Z,-2.32
2022-12-15T12:49:34.364Z,-2.32
2022-12-15T12:50:34.643Z,-2.32
2022-12-15T12:51:34.957Z,-2.34
2022-12-15T12:52:35.265Z,-2.37
2022-12-15T12:53:35.965Z,-2.39
2022-12-15T12:54:35.858Z,-2.39
2022-12-15T12:55:36.193Z,-2.42
2022-12-15T12:56:36.374Z,-2.40
2022-12-15T12:57:36.655Z,-2.40
2022-12-15T12:58:36.946Z,-2.42
2022-12-15T12:59:37.245Z,-2.42
2022-12-15T13:00:37.669Z,-2.43
2022-12-15T13:01:38.103Z,-2.43
2022-12-15T13:02:38.221Z,-2.40
2022-12-15T13:03:38.315Z,-2.35
2022-12-15T13:04:38.616Z,-2.34
2022-12-15T13:05:38.916Z,-2.34
2022-12-15T13:06:39.200Z,-2.37
2022-12-15T13:07:39.487Z,-2.39
2022-12-15T13:08:39.775Z,-2.37
2022-12-15T13:09:40.128Z,-2.32
2022-12-15T13:10:40.435Z,-2.29
2022-12-15T13:11:40.715Z,-2.29